Time;durP1;ratioP1;P1;durP2;ratioP2;P2;SDS_P1;SDS_P2;PMS_P1;PMS_P2;Temp;Humidity;BMP_temperature;BMP_pressure;BME280_temperature;BME280_humidity;BME280_pressure;Samples;Min_cycle;Max_cycle;Signal;HPM_P1;HPM_P2
2023/06/01 00:00:55;;;;;;;102.70;97.90;;;;;;;25.73;35.90;102211.19;5009952;28;20084;-74
2023/06/01 00:03:21;;;;;;;99.80;95.03;;;;;;;25.69;35.67;102205.44;4992107;28;20394;-74
2023/06/01 00:05:47;;;;;;;106.20;101.30;;;;;;;25.64;35.75;102200.84;4990933;28;20030;-74
2023/06/01 00:08:12;;;;;;;100.93;96.13;;;;;;;25.60;35.80;102205.38;4998798;28;20038;-74
2023/06/01 00:10:37;;;;;;;103.22;98.43;;;;;;;25.57;35.98;102196.84;5011615;28;20042;-75
2023/06/01 00:13:03;;;;;;;100.22;95.32;;;;;;;25.53;35.69;102204.13;4995530;28;20062;-73
2023/06/01 00:15:28;;;;;;;103.38;98.65;;;;;;;25.48;36.00;102208.66;4992307;28;20030;-75
2023/06/01 00:17:55;;;;;;;99.28;94.30;;;;;;;25.43;35.94;102199.66;5004366;28;20065;-80
2023/06/01 00:20:23;;;;;;;103.75;98.65;;;;;;;25.38;36.08;102195.03;4975308;28;20125;-75
2023/06/01 00:22:49;;;;;;;101.07;96.22;;;;;;;25.35;35.58;102198.44;4990545;28;20575;-74
2023/06/01 00:25:15;;;;;;;100.15;95.15;;;;;;;25.31;35.99;102196.59;5010756;28;20137;-75
2023/06/01 00:27:40;;;;;;;101.00;96.18;;;;;;;25.28;35.97;102197.19;5002611;28;20079;-76
2023/06/01 00:30:06;;;;;;;101.07;96.10;;;;;;;25.23;35.76;102192.59;5004610;28;20066;-74
2023/06/01 00:32:31;;;;;;;101.15;95.90;;;;;;;25.19;36.04;102192.38;5010309;28;20045;-75
2023/06/01 00:34:57;;;;;;;101.15;96.22;;;;;;;25.15;36.15;102199.63;5002620;28;20034;-75
2023/06/01 00:37:22;;;;;;;97.57;92.57;;;;;;;25.11;36.25;102201.34;5023146;28;20045;-74
2023/06/01 00:39:48;;;;;;;96.65;92.18;;;;;;;25.06;36.00;102195.91;5013322;28;20037;-75
2023/06/01 00:42:13;;;;;;;99.75;94.93;;;;;;;25.02;35.91;102194.88;5013241;28;20487;-75
2023/06/01 00:44:38;;;;;;;98.47;93.57;;;;;;;24.97;36.31;102193.06;5019136;28;20038;-76
2023/06/01 00:47:04;;;;;;;96.25;91.72;;;;;;;24.94;35.87;102187.31;4993851;28;20039;-77
2023/06/01 00:49:30;;;;;;;96.70;92.03;;;;;;;24.89;35.89;102193.75;5006090;28;20065;-76
2023/06/01 00:51:55;;;;;;;96.18;91.38;;;;;;;24.86;35.86;102194.34;4993920;28;20394;-74
2023/06/01 00:54:21;;;;;;;97.90;92.95;;;;;;;24.80;36.16;102188.09;5000475;28;20030;-74
2023/06/01 00:56:47;;;;;;;97.90;92.88;;;;;;;24.76;36.12;102187.06;4994921;28;20466;-76
2023/06/01 00:59:13;;;;;;;96.82;92.10;;;;;;;24.72;36.35;102185.22;5010455;28;20156;-74
2023/06/01 01:01:42;;;;;;;97.15;91.97;;;;;;;24.68;36.40;102200.78;5007621;28;20049;-75
2023/06/01 01:04:09;;;;;;;95.20;90.70;;;;;;;24.63;36.14;102196.16;5014598;28;20097;-75
2023/06/01 01:06:37;;;;;;;92.55;88.15;;;;;;;24.59;35.95;102198.72;5007016;28;20033;-75
2023/06/01 01:09:44;;;;;;;93.40;88.80;;;;;;;24.55;36.11;102207.91;5011719;28;20041;-75
2023/06/01 01:12:21;;;;;;;92.43;87.93;;;;;;;24.49;35.96;102204.38;5044969;28;20132;-75
2023/06/01 01:15:08;;;;;;;91.18;86.97;;;;;;;24.44;36.34;102207.19;5020229;28;20044;-75
2023/06/01 01:17:38;;;;;;;93.78;89.07;;;;;;;24.40;36.30;102208.94;5013164;28;20117;-75
2023/06/01 01:20:15;;;;;;;95.10;90.20;;;;;;;24.35;36.37;102207.06;5028719;28;20021;-75
2023/06/01 01:23:02;;;;;;;91.10;86.75;;;;;;;24.31;36.62;102205.22;5005242;28;20027;-77
2023/06/01 01:25:30;;;;;;;91.80;87.00;;;;;;;24.26;36.11;102206.09;5009896;28;20044;-74
2023/06/01 01:28:05;;;;;;;;;;;;;;;24.22;36.61;102198.72;5025968;28;20076;-75
2023/06/01 01:30:33;;;;;;;86.18;81.97;;;;;;;24.15;36.67;102197.16;5019739;28;19921;-75
2023/06/01 01:33:00;;;;;;;88.53;84.25;;;;;;;24.11;36.45;102201.63;4993209;28;20042;-75
2023/06/01 01:35:28;;;;;;;89.65;85.32;;;;;;;24.07;36.34;102197.03;4994212;28;20034;-75
2023/06/01 01:37:54;;;;;;;89.35;84.85;;;;;;;24.04;36.25;102197.63;4994698;28;20065;-74
2023/06/01 01:40:20;;;;;;;88.07;83.78;;;;;;;24.00;36.67;102199.34;4997235;28;20124;-74
2023/06/01 01:42:46;;;;;;;90.05;85.53;;;;;;;23.96;36.66;102202.72;4998511;28;20558;-75
2023/06/01 01:45:13;;;;;;;87.90;83.60;;;;;;;23.93;36.35;102205.22;4994011;28;20518;-77
2023/06/01 01:47:58;;;;;;;91.68;86.85;;;;;;;23.88;36.67;102206.13;4982825;28;20376;-75
2023/06/01 01:50:27;;;;;;;85.22;81.07;;;;;;;23.84;36.60;102215.28;4999060;28;20421;-75
2023/06/01 01:52:54;;;;;;;87.18;82.97;;;;;;;23.80;36.77;102208.72;4996545;28;20030;-77
2023/06/01 01:55:23;;;;;;;87.53;82.78;;;;;;;23.75;36.45;102209.63;5011689;28;20156;-75
2023/06/01 01:57:50;;;;;;;88.55;84.15;;;;;;;23.72;36.38;102201.91;5029358;28;20061;-75
2023/06/01 02:00:17;;;;;;;91.13;86.72;;;;;;;23.67;36.84;102211.06;4994417;28;20034;-74
2023/06/01 02:02:45;;;;;;;85.65;81.65;;;;;;;23.64;36.55;102202.56;4992482;28;20030;-76
2023/06/01 02:05:11;;;;;;;86.55;82.35;;;;;;;23.59;36.70;102203.47;4998978;28;20042;-75
2023/06/01 02:07:36;;;;;;;89.45;84.95;;;;;;;23.55;36.84;102199.63;4995009;28;20042;-74
2023/06/01 02:10:02;;;;;;;88.82;84.43;;;;;;;23.50;36.66;102195.00;5009129;28;20040;-73
2023/06/01 02:12:27;;;;;;;87.00;82.72;;;;;;;23.46;36.30;102205.00;5006957;28;20045;-74
2023/06/01 02:14:52;;;;;;;83.65;79.88;;;;;;;23.43;36.77;102208.31;5020852;28;20432;-74
2023/06/01 02:17:18;;;;;;;85.20;80.93;;;;;;;23.39;36.78;102198.19;5007386;28;20038;-75
2023/06/01 02:19:44;;;;;;;85.78;81.80;;;;;;;23.35;36.49;102195.19;4991965;28;20030;-75
2023/06/01 02:22:10;;;;;;;84.60;80.55;;;;;;;23.30;36.37;102198.00;4993352;28;20030;-76
2023/06/01 02:24:35;;;;;;;81.95;77.75;;;;;;;23.25;37.04;102196.13;5023855;28;20475;-76
2023/06/01 02:27:02;;;;;;;84.85;80.90;;;;;;;23.21;36.66;102202.50;4993735;28;20109;-75
2023/06/01 02:29:27;;;;;;;83.07;79.15;;;;;;;23.18;36.49;102197.59;4999554;28;20058;-74
2023/06/01 02:31:53;;;;;;;81.78;78.07;;;;;;;23.12;36.54;102196.84;4993232;28;20032;-74
2023/06/01 02:34:19;;;;;;;85.30;80.68;;;;;;;23.08;36.84;102193.84;5007850;28;20042;-74
2023/06/01 02:36:46;;;;;;;81.47;77.43;;;;;;;23.05;36.75;102193.59;4999298;28;20045;-74
2023/06/01 02:39:12;;;;;;;82.13;78.18;;;;;;;23.01;36.93;102192.56;4993085;28;20113;-74
2023/06/01 02:41:37;;;;;;;80.07;76.13;;;;;;;22.97;36.70;102192.31;4997120;28;20134;-73
2023/06/01 02:44:03;;;;;;;78.75;75.05;;;;;;;22.93;36.80;102195.91;4993450;28;20126;-75
2023/06/01 02:46:28;;;;;;;82.05;78.05;;;;;;;22.89;37.05;102196.50;4992568;28;20331;-73
2023/06/01 02:48:54;;;;;;;80.78;76.78;;;;;;;22.85;36.76;102192.66;5006538;28;20181;-75
2023/06/01 02:51:19;;;;;;;80.22;76.03;;;;;;;;;;5010509;28;20026;-75
2023/06/01 02:53:46;;;;;;;82.03;78.05;;;;;;;22.78;37.18;102200.47;5013967;28;20037;-73
2023/06/01 02:56:12;;;;;;;78.93;75.22;;;;;;;22.75;37.17;102197.44;4993104;28;20084;-73
2023/06/01 02:58:37;;;;;;;79.05;75.10;;;;;;;22.70;36.88;102195.56;4998465;28;20041;-74
2023/06/01 03:01:03;;;;;;;81.65;77.65;;;;;;;22.67;37.34;102194.22;5022706;28;20037;-74
2023/06/01 03:03:28;;;;;;;81.10;77.25;;;;;;;22.64;36.67;102196.72;5009642;28;20478;-73
2023/06/01 03:05:55;;;;;;;77.70;73.90;;;;;;;22.60;36.80;102193.75;5013613;28;20030;-72
2023/06/01 03:08:21;;;;;;;81.13;76.85;;;;;;;22.56;36.76;102186.34;5011148;28;20030;-72
2023/06/01 03:10:46;;;;;;;80.75;76.65;;;;;;;22.52;36.71;102188.84;5001829;28;20119;-77
2023/06/01 03:13:12;;;;;;;77.22;73.15;;;;;;;22.47;37.25;102189.69;4995419;28;20124;-76
2023/06/01 03:15:38;;;;;;;80.22;76.22;;;;;;;22.45;37.35;102191.09;5014180;28;20422;-74
2023/06/01 03:18:08;;;;;;;80.22;76.13;;;;;;;22.42;36.79;102186.97;4998022;28;20041;-74
2023/06/01 03:20:34;;;;;;;76.15;72.47;;;;;;;22.38;36.92;102196.13;5037144;28;20044;-76
2023/06/01 03:23:00;;;;;;;79.60;75.55;;;;;;;22.35;37.30;102197.53;5010445;28;20121;-75
2023/06/01 03:25:25;;;;;;;79.15;75.28;;;;;;;22.31;37.17;102201.94;4991191;28;20511;-72
2023/06/01 03:27:51;;;;;;;77.25;73.35;;;;;;;22.29;37.37;102203.34;4993624;28;20043;-73
2023/06/01 03:30:16;;;;;;;76.53;72.80;;;;;;;22.25;36.87;102200.31;4992345;28;20050;-72
2023/06/01 03:32:43;;;;;;;77.72;73.72;;;;;;;22.20;37.33;102201.22;5000863;28;20085;-73
2023/06/01 03:35:09;;;;;;;78.47;74.68;;;;;;;22.16;37.38;102202.84;5000356;28;20030;-73
2023/06/01 03:37:36;;;;;;;74.70;71.20;;;;;;;22.12;37.48;102204.53;5004961;28;20112;-73
2023/06/01 03:40:10;;;;;;;76.10;72.18;;;;;;;22.08;37.24;102203.47;4992551;28;20046;-73
2023/06/01 03:42:43;;;;;;;75.00;71.30;;;;;;;22.04;37.07;102211.44;4991437;28;20031;-73
2023/06/01 03:45:09;;;;;;;77.22;73.53;;;;;;;22.01;37.43;102200.19;4997165;28;20048;-73
2023/06/01 03:47:35;;;;;;;75.00;70.72;;;;;;;21.98;37.39;102200.78;4999878;28;20026;-74
2023/06/01 03:50:02;;;;;;;73.97;70.28;;;;;;;21.94;37.72;102208.75;5023098;28;20100;-73
2023/06/01 03:52:28;;;;;;;74.68;70.78;;;;;;;21.91;37.22;102198.31;4994664;28;20117;-73
2023/06/01 03:54:58;;;;;;;73.95;70.03;;;;;;;21.86;37.46;102212.13;5020322;28;20149;-73
2023/06/01 03:57:23;;;;;;;74.88;71.38;;;;;;;21.84;37.69;102211.56;4992790;28;20038;-74
2023/06/01 03:59:50;;;;;;;75.40;71.60;;;;;;;21.79;37.59;102209.66;4991787;28;20088;-74
2023/06/01 04:02:18;;;;;;;74.57;70.82;;;;;;;21.76;37.34;102206.66;5014967;28;20113;-75
2023/06/01 04:04:45;;;;;;;72.22;68.45;;;;;;;21.72;37.74;102209.16;5011234;28;20089;-75
2023/06/01 04:07:14;;;;;;;73.68;70.07;;;;;;;21.70;37.91;102205.06;4996641;28;20065;-76
2023/06/01 04:09:43;;;;;;;73.25;69.82;;;;;;;21.66;37.84;102207.53;4995940;28;20041;-74
2023/06/01 04:12:10;;;;;;;75.45;71.68;;;;;;;21.64;37.59;102211.66;5029101;28;20121;-75
2023/06/01 04:14:36;;;;;;;74.38;70.70;;;;;;;21.60;38.02;102204.00;4995017;28;20049;-74
2023/06/01 04:17:02;;;;;;;74.32;70.70;;;;;;;21.57;37.96;102215.56;4995738;28;20042;-73
2023/06/01 04:19:27;;;;;;;75.05;71.35;;;;;;;21.55;37.86;102211.44;4995695;28;20037;-76
2023/06/01 04:21:52;;;;;;;75.50;71.70;;;;;;;21.52;37.59;102212.84;5042818;28;20045;-77
2023/06/01 04:24:18;;;;;;;71.78;68.47;;;;;;;21.49;37.93;102212.56;4978651;28;20496;-74
2023/06/01 04:26:44;;;;;;;73.00;69.28;;;;;;;21.45;37.76;102212.31;4998885;28;20475;-74
2023/06/01 04:29:11;;;;;;;73.68;69.97;;;;;;;21.43;38.02;102210.94;4990260;28;20060;-74
2023/06/01 04:31:38;;;;;;;75.50;71.70;;;;;;;21.39;38.10;102214.25;5019057;28;20122;-74
2023/06/01 04:34:05;;;;;;;71.38;67.97;;;;;;;21.36;37.81;102216.69;4999799;28;20051;-74
2023/06/01 04:36:33;;;;;;;70.22;66.82;;;;;;;21.34;37.92;102227.13;4995358;28;20030;-74
2023/06/01 04:38:58;;;;;;;70.27;66.83;;;;;;;21.29;38.27;102219.75;4995595;28;20561;-74
2023/06/01 04:41:28;;;;;;;71.68;68.03;;;;;;;21.28;37.78;102220.84;5021215;28;20030;-74
2023/06/01 04:43:54;;;;;;;72.15;67.80;;;;;;;21.26;37.77;102224.97;5006816;28;20552;-74
2023/06/01 04:46:24;;;;;;;71.60;68.03;;;;;;;21.23;37.67;102225.53;5019468;28;20120;-74
2023/06/01 04:48:55;;;;;;;73.35;68.90;;;;;;;21.19;37.86;102228.00;5014508;28;20030;-74
2023/06/01 04:51:20;;;;;;;69.72;66.22;;;;;;;21.15;37.78;102230.50;5030625;28;20030;-74
2023/06/01 04:53:49;;;;;;;70.28;66.88;;;;;;;21.12;38.18;102225.56;5011386;28;20394;-75
2023/06/01 04:56:17;;;;;;;71.63;67.70;;;;;;;21.10;38.23;102232.44;4998258;28;20165;-74
2023/06/01 04:58:44;;;;;;;70.63;66.82;;;;;;;21.07;38.39;102231.06;4999614;28;20049;-75
2023/06/01 05:01:15;;;;;;;70.28;66.68;;;;;;;21.05;38.08;102230.50;5001081;28;20029;-74
2023/06/01 05:03:46;;;;;;;70.28;66.50;;;;;;;21.02;38.34;102230.25;4997793;28;20034;-75
2023/06/01 05:06:13;;;;;;;67.88;64.65;;;;;;;21.00;38.22;102226.94;4994857;28;20478;-74
2023/06/01 05:08:39;;;;;;;68.40;65.10;;;;;;;20.96;37.91;102222.03;4993366;28;20076;-75
2023/06/01 05:11:06;;;;;;;68.65;65.20;;;;;;;20.93;38.32;102227.22;4998267;28;20038;-75
2023/06/01 05:13:33;;;;;;;69.78;65.78;;;;;;;20.92;38.40;102225.59;4995652;28;20422;-75
2023/06/01 05:15:58;;;;;;;68.90;65.40;;;;;;;20.90;38.38;102225.03;4995847;28;20110;-73
2023/06/01 05:18:24;;;;;;;67.03;63.40;;;;;;;20.87;38.24;102220.91;4977261;28;20034;-74
2023/06/01 05:20:49;;;;;;;63.85;60.67;;;;;;;20.85;38.59;102225.03;4994609;28;20438;-74
2023/06/01 05:23:15;;;;;;;66.60;62.88;;;;;;;20.81;38.03;102218.44;5022963;28;20031;-75
2023/06/01 05:25:40;;;;;;;68.38;64.68;;;;;;;20.79;38.14;102224.22;5019513;28;20037;-75
2023/06/01 05:28:06;;;;;;;66.25;62.90;;;;;;;20.78;38.50;102221.75;5012586;28;20045;-75
2023/06/01 05:30:33;;;;;;;65.97;62.58;;;;;;;20.75;38.52;102220.38;5012219;28;20053;-76
2023/06/01 05:32:59;;;;;;;64.75;61.60;;;;;;;20.74;38.17;102221.50;5019130;28;20409;-74
2023/06/01 05:35:25;;;;;;;64.72;61.50;;;;;;;20.70;38.30;102221.19;5013227;28;20121;-75
2023/06/01 05:37:50;;;;;;;65.80;62.20;;;;;;;20.68;38.23;102217.09;4995939;28;20121;-73
2023/06/01 05:40:16;;;;;;;65.70;62.05;;;;;;;20.67;38.58;102218.19;5028630;28;20375;-74
2023/06/01 05:42:42;;;;;;;65.10;61.70;;;;;;;20.64;38.21;102224.25;5010527;28;20042;-75
2023/06/01 05:45:09;;;;;;;64.90;61.60;;;;;;;20.63;38.44;102217.09;5006186;28;20044;-73
2023/06/01 05:47:34;;;;;;;64.55;61.15;;;;;;;20.60;38.29;102225.88;5013090;28;20486;-74
2023/06/01 05:50:00;;;;;;;63.55;60.22;;;;;;;20.57;38.62;102213.53;5005770;28;20032;-74
2023/06/01 05:52:25;;;;;;;64.72;61.63;;;;;;;20.56;38.38;102216.53;5024687;28;20045;-75
2023/06/01 05:54:53;;;;;;;64.53;60.80;;;;;;;20.55;38.45;102223.13;5003203;28;20047;-75
2023/06/01 05:57:19;;;;;;;66.70;63.22;;;;;;;20.52;38.46;102213.50;5016101;28;20034;-73
2023/06/01 05:59:45;;;;;;;64.55;60.88;;;;;;;20.49;38.50;102217.59;5005791;28;20042;-75
2023/06/01 06:02:11;;;;;;;62.92;59.80;;;;;;;20.48;38.75;102215.94;5011330;28;20034;-80
2023/06/01 06:04:39;;;;;;;65.03;61.72;;;;;;;20.46;38.53;102217.31;5027756;28;20041;-76
2023/06/01 06:07:05;;;;;;;65.83;61.87;;;;;;;20.44;38.36;102208.56;5014087;28;20030;-76
2023/06/01 06:09:30;;;;;;;66.63;63.10;;;;;;;20.42;38.81;102210.75;5011622;28;20103;-74
2023/06/01 06:11:56;;;;;;;66.22;62.75;;;;;;;20.41;38.96;102220.06;5025231;28;20128;-76
2023/06/01 06:14:21;;;;;;;64.43;60.92;;;;;;;20.38;38.71;102218.69;5018961;28;20087;-76
2023/06/01 06:16:47;;;;;;;62.75;59.72;;;;;;;20.36;38.53;102226.38;5000257;28;20031;-74
2023/06/01 06:19:15;;;;;;;63.83;60.65;;;;;;;20.34;38.70;102230.50;5014125;28;20034;-76
2023/06/01 06:21:41;;;;;;;63.63;60.53;;;;;;;20.32;38.63;102231.56;4995445;28;20093;-77
2023/06/01 06:24:06;;;;;;;66.07;62.33;;;;;;;20.31;38.48;102224.44;5029997;28;20466;-76
2023/06/01 06:26:32;;;;;;;64.57;61.38;;;;;;;20.30;38.55;102227.47;5017656;28;20038;-77
2023/06/01 06:28:58;;;;;;;66.18;62.53;;;;;;;20.28;38.53;102227.72;4993721;28;20050;-76
2023/06/01 06:31:23;;;;;;;66.90;62.92;;;;;;;20.28;38.88;102226.91;4992298;28;20057;-76
2023/06/01 06:33:49;;;;;;;65.28;61.95;;;;;;;20.26;38.59;102232.69;4992096;28;20096;-75
2023/06/01 06:36:16;;;;;;;63.63;60.30;;;;;;;20.25;38.98;102225.53;4995266;28;20031;-78
2023/06/01 06:38:42;;;;;;;68.18;64.38;;;;;;;20.25;38.94;102220.03;5010956;28;20037;-76
2023/06/01 06:41:08;;;;;;;66.15;62.45;;;;;;;20.27;38.63;102222.53;5027546;28;20117;-75
2023/06/01 06:43:34;;;;;;;65.55;61.85;;;;;;;20.26;38.75;102223.59;4992849;28;20490;-76
2023/06/01 06:45:59;;;;;;;65.15;61.58;;;;;;;20.26;38.91;102227.19;4993075;28;20038;-75
2023/06/01 06:48:25;;;;;;;63.92;60.50;;;;;;;20.25;38.84;102228.25;4994743;28;20057;-75
2023/06/01 06:50:50;;;;;;;67.05;63.25;;;;;;;20.22;39.19;102222.50;5002657;28;20466;-76
2023/06/01 06:53:17;;;;;;;66.15;62.42;;;;;;;20.22;39.13;102226.06;4991366;28;20402;-74
2023/06/01 06:55:43;;;;;;;61.92;59.03;;;;;;;20.21;39.29;102232.66;4992863;28;20038;-76
2023/06/01 06:58:10;;;;;;;64.45;60.95;;;;;;;20.20;39.08;102235.66;4973244;28;20029;-77
2023/06/01 07:00:36;;;;;;;64.63;61.13;;;;;;;20.20;39.33;102227.44;5011111;28;20471;-76
2023/06/01 07:03:02;;;;;;;64.03;60.50;;;;;;;20.21;39.29;102231.81;5008073;28;20040;-77
2023/06/01 07:05:28;;;;;;;63.63;60.33;;;;;;;20.21;39.26;102238.16;4993725;28;20030;-76
2023/06/01 07:07:54;;;;;;;66.00;62.40;;;;;;;20.23;39.37;102237.88;4995370;28;20038;-75
2023/06/01 07:10:19;;;;;;;65.30;61.45;;;;;;;20.22;39.61;102241.72;5010939;28;20182;-76
2023/06/01 07:12:45;;;;;;;64.50;61.20;;;;;;;20.22;39.28;102242.53;4999790;28;20038;-75
2023/06/01 07:15:10;;;;;;;64.97;60.60;;;;;;;20.24;39.67;102236.78;5025285;28;20041;-76
2023/06/01 07:17:36;;;;;;;66.88;63.35;;;;;;;20.24;39.70;102237.59;4994712;28;20385;-75
2023/06/01 07:20:06;;;;;;;65.90;62.13;;;;;;;20.25;39.40;102232.94;4984057;28;20118;-76
2023/06/01 07:22:33;;;;;;;65.40;61.45;;;;;;;20.24;39.23;102237.59;4991593;28;20125;-76
2023/06/01 07:24:58;;;;;;;64.35;60.75;;;;;;;20.26;39.88;102234.56;4992230;28;20057;-75
2023/06/01 07:27:24;;;;;;;65.05;61.55;;;;;;;20.28;39.56;102229.63;5014445;28;20462;-77
2023/06/01 07:29:55;;;;;;;66.53;62.75;;;;;;;20.30;39.57;102232.94;5004455;28;20416;-76
2023/06/01 07:32:25;;;;;;;62.63;59.42;;;;;;;20.31;39.76;102235.44;5010547;28;20538;-74
2023/06/01 07:34:51;;;;;;;64.38;60.90;;;;;;;20.32;39.32;102230.75;5010162;28;20032;-75
2023/06/01 07:37:21;;;;;;;68.43;64.57;;;;;;;20.33;39.94;102232.38;5009883;28;20033;-78
2023/06/01 07:39:47;;;;;;;66.47;62.20;;;;;;;20.35;39.42;102234.88;5017068;28;20394;-76
2023/06/01 07:42:13;;;;;;;67.82;63.72;;;;;;;20.36;39.52;102234.63;5010261;28;20109;-77
2023/06/01 07:44:38;;;;;;;64.95;61.22;;;;;;;20.39;39.64;102233.25;4996156;28;20461;-78
2023/06/01 07:47:04;;;;;;;64.47;61.45;;;;;;;20.39;39.62;102223.09;4995601;28;20045;-76
2023/06/01 07:49:29;;;;;;;66.55;62.70;;;;;;;20.42;39.94;102224.47;5024651;28;20486;-77
2023/06/01 07:51:55;;;;;;;65.30;61.90;;;;;;;20.46;40.16;102229.13;5007011;28;20034;-77
2023/06/01 07:54:21;;;;;;;65.13;61.78;;;;;;;20.49;39.80;102231.31;4994222;28;20034;-75
2023/06/01 07:56:47;;;;;;;65.95;62.60;;;;;;;20.51;39.81;102236.53;5021593;28;20033;-78
2023/06/01 07:59:12;;;;;;;66.95;62.65;;;;;;;20.53;39.94;102228.84;5001874;28;20030;-76
2023/06/01 08:01:38;;;;;;;65.68;62.17;;;;;;;20.57;40.32;102223.69;5026812;28;20030;-76
2023/06/01 08:04:03;;;;;;;67.88;64.05;;;;;;;20.61;39.89;102227.50;5012424;28;20038;-76
2023/06/01 08:06:35;;;;;;;66.63;63.20;;;;;;;20.64;40.25;102230.53;5004228;28;20398;-76
2023/06/01 08:09:02;;;;;;;68.38;64.65;;;;;;;20.67;40.12;102220.94;4994957;28;20038;-75
2023/06/01 08:11:28;;;;;;;69.97;66.07;;;;;;;20.71;40.25;102219.28;5013330;28;20068;-78
2023/06/01 08:13:53;;;;;;;69.88;65.50;;;;;;;20.75;40.53;102229.44;5003298;28;20378;-76
2023/06/01 08:16:19;;;;;;;65.50;62.28;;;;;;;20.79;40.26;102226.13;5004431;28;20038;-76
2023/06/01 08:18:44;;;;;;;66.05;62.35;;;;;;;20.82;40.57;102231.09;5001810;28;20036;-75
2023/06/01 08:21:10;;;;;;;67.22;63.70;;;;;;;20.87;40.42;102228.34;5012127;28;20353;-75
2023/06/01 08:23:35;;;;;;;68.75;65.28;;;;;;;20.91;40.60;102235.72;5009228;28;20030;-77
2023/06/01 08:26:01;;;;;;;69.30;65.53;;;;;;;20.97;40.54;102225.59;5023687;28;20038;-78
2023/06/01 08:28:26;;;;;;;69.82;66.18;;;;;;;21.02;40.61;102230.25;5017453;28;20552;-75
2023/06/01 08:30:52;;;;;;;74.32;69.85;;;;;;;21.08;40.23;102231.88;5011170;28;20057;-75
2023/06/01 08:33:17;;;;;;;71.35;67.47;;;;;;;21.12;40.65;102231.06;4993566;28;20041;-76
2023/06/01 08:35:43;;;;;;;71.63;67.80;;;;;;;21.17;40.45;102228.28;4990366;28;20023;-76
2023/06/01 08:38:08;;;;;;;71.97;67.72;;;;;;;21.23;40.50;102220.84;5002069;28;20664;-73
2023/06/01 08:40:34;;;;;;;73.55;69.43;;;;;;;21.29;40.45;102219.75;4976478;28;20100;-75
2023/06/01 08:43:09;;;;;;;70.45;66.75;;;;;;;21.36;40.55;102224.94;5008751;28;20064;-76
2023/06/01 08:45:37;;;;;;;69.18;65.78;;;;;;;21.41;40.79;102219.44;4990683;28;20057;-77
2023/06/01 08:48:08;;;;;;;73.25;69.35;;;;;;;21.48;40.63;102224.66;5021366;28;20036;-75
2023/06/01 08:50:34;;;;;;;72.15;68.40;;;;;;;21.54;40.91;102221.59;5007470;28;20042;-74
2023/06/01 08:53:01;;;;;;;74.78;70.53;;;;;;;21.61;40.33;102213.88;5006825;28;20073;-74
2023/06/01 08:55:26;;;;;;;72.90;69.13;;;;;;;21.70;40.56;102213.31;4998207;28;20034;-74
2023/06/01 08:57:53;;;;;;;72.53;68.97;;;;;;;21.77;40.81;102213.78;4995082;28;20088;-73
2023/06/01 09:00:20;;;;;;;76.38;72.18;;;;;;;21.84;40.78;102211.56;5001969;28;20050;-73
2023/06/01 09:02:45;;;;;;;70.63;67.20;;;;;;;21.92;40.81;102215.66;5014935;28;20377;-74
2023/06/01 09:05:12;;;;;;;74.57;70.35;;;;;;;21.97;40.65;102202.72;5010994;28;20038;-75
2023/06/01 09:07:39;;;;;;;76.13;71.97;;;;;;;22.05;40.30;102215.03;5014385;28;20148;-78
2023/06/01 09:10:05;;;;;;;76.43;71.80;;;;;;;22.14;40.60;102210.56;5012685;28;20473;-76
2023/06/01 09:12:32;;;;;;;75.70;71.57;;;;;;;22.22;40.34;102203.66;5010563;28;20033;-74
2023/06/01 09:15:10;;;;;;;78.68;74.38;;;;;;;22.31;40.45;102195.63;4997425;28;20497;-76
2023/06/01 09:17:36;;;;;;;76.13;72.18;;;;;;;22.38;40.04;102199.69;4998364;28;20022;-76
2023/06/01 09:20:03;;;;;;;80.18;75.05;;;;;;;22.46;40.48;102184.50;4992844;28;20395;-76
2023/06/01 09:22:45;;;;;;;79.18;74.93;;;;;;;22.56;40.48;102191.84;5003752;28;20029;-74
2023/06/01 09:25:13;;;;;;;79.40;75.30;;;;;;;22.63;40.24;102187.66;5008081;28;20477;-75
2023/06/01 09:27:44;;;;;;;79.30;75.15;;;;;;;22.72;40.05;102182.31;5009035;28;20105;-74
2023/06/01 09:30:10;;;;;;;82.88;78.47;;;;;;;22.79;39.76;102176.50;5003732;28;20054;-74
2023/06/01 09:32:35;;;;;;;81.78;77.53;;;;;;;22.88;39.77;102186.59;4998023;28;20044;-74
2023/06/01 09:35:01;;;;;;;83.43;79.13;;;;;;;22.96;39.95;102179.63;5010491;28;20333;-74
2023/06/01 09:37:26;;;;;;;80.53;76.45;;;;;;;23.03;40.09;102185.66;4995393;28;20092;-74
2023/06/01 09:39:51;;;;;;;85.40;80.88;;;;;;;23.11;40.14;102181.44;5011947;28;20501;-74
2023/06/01 09:42:17;;;;;;;85.80;81.00;;;;;;;23.19;40.13;102169.75;5009888;28;20037;-76
2023/06/01 09:44:43;;;;;;;87.88;83.13;;;;;;;23.29;39.43;102179.84;4996715;28;20041;-76
2023/06/01 09:47:12;;;;;;;85.18;80.47;;;;;;;23.39;39.89;102173.38;4998283;28;20042;-75
2023/06/01 09:49:39;;;;;;;85.60;81.20;;;;;;;23.48;39.67;102169.66;4993208;28;20065;-74
2023/06/01 09:52:05;;;;;;;84.05;79.30;;;;;;;23.57;39.59;102169.00;4991761;28;20546;-75
2023/06/01 09:54:46;;;;;;;88.07;83.38;;;;;;;23.66;39.53;102172.72;5015706;28;20034;-81
2023/06/01 09:57:12;;;;;;;84.68;79.57;;;;;;;23.73;39.38;102163.00;4999678;28;20093;-75
2023/06/01 09:59:45;;;;;;;87.03;81.55;;;;;;;23.82;38.71;102170.63;5006361;28;20084;-79
2023/06/01 10:02:16;;;;;;;90.63;85.57;;;;;;;23.90;38.68;102170.78;5019079;28;20057;-76
2023/06/01 10:04:49;;;;;;;89.90;84.88;;;;;;;23.98;38.00;102159.03;5001507;28;20045;-76
2023/06/01 10:07:16;;;;;;;88.90;84.20;;;;;;;24.07;38.61;102161.97;5024112;28;20029;-80
2023/06/01 10:09:43;;;;;;;87.93;83.00;;;;;;;24.15;38.10;102161.28;5012488;28;20068;-79
2023/06/01 10:12:09;;;;;;;91.40;86.50;;;;;;;24.25;38.13;102165.00;5011002;28;20041;-76
2023/06/01 10:14:38;;;;;;;89.85;84.93;;;;;;;24.32;38.34;102157.97;4993969;28;20042;-76
2023/06/01 10:17:04;;;;;;;87.65;83.65;;;;;;;24.41;38.57;102163.63;5003646;28;20095;-77
2023/06/01 10:19:30;;;;;;;90.50;85.82;;;;;;;24.48;38.36;102161.31;5012548;28;20454;-78
2023/06/01 10:21:59;;;;;;;90.07;84.00;;;;;;;24.58;38.38;102161.16;5026868;28;20120;-76
2023/06/01 10:24:26;;;;;;;92.18;87.45;;;;;;;24.68;37.93;102151.03;5007832;28;20040;-76
2023/06/01 10:27:10;;;;;;;92.40;87.18;;;;;;;24.76;37.85;102150.34;5007417;28;20030;-76
2023/06/01 10:29:36;;;;;;;94.22;89.70;;;;;;;24.87;37.75;102151.75;5005581;28;20046;-76
2023/06/01 10:32:02;;;;;;;94.78;89.93;;;;;;;24.96;37.65;102149.94;5006658;28;20458;-79
2023/06/01 10:34:42;;;;;;;93.25;88.60;;;;;;;25.04;38.18;102154.75;4990267;28;20045;-77
2023/06/01 10:37:07;;;;;;;99.00;94.05;;;;;;;25.13;37.76;102154.06;4995441;28;20037;-78
2023/06/01 10:39:34;;;;;;;94.07;89.47;;;;;;;25.21;37.59;102153.34;5006716;28;20026;-78
2023/06/01 10:42:19;;;;;;;96.68;91.35;;;;;;;25.31;37.54;102150.38;4995716;28;20045;-78
2023/06/01 10:44:46;;;;;;;95.82;91.07;;;;;;;25.39;37.54;102146.88;5017045;28;20080;-77
2023/06/01 10:47:12;;;;;;;101.18;96.05;;;;;;;25.47;37.34;102146.13;5009014;28;20077;-79
2023/06/01 10:50:07;;;;;;;106.25;100.97;;;;;;;25.57;37.64;102136.00;5003522;28;20068;-76
2023/06/01 10:52:40;;;;;;;97.43;92.78;;;;;;;25.66;37.42;102139.66;4980812;28;20093;-77
2023/06/01 10:55:06;;;;;;;105.90;100.53;;;;;;;25.72;37.13;102130.09;5005988;28;20037;-74
2023/06/01 10:57:32;;;;;;;101.40;96.30;;;;;;;25.81;37.30;102135.72;5013342;28;20110;-76
2023/06/01 11:00:22;;;;;;;104.43;99.13;;;;;;;25.89;37.07;102141.34;5010654;28;20033;-75
2023/06/01 11:02:55;;;;;;;103.53;98.22;;;;;;;25.96;37.20;102138.16;4996210;28;20026;-75
2023/06/01 11:05:51;;;;;;;105.85;100.55;;;;;;;26.04;36.99;102131.88;5013529;28;20482;-77
2023/06/01 11:08:20;;;;;;;103.10;98.20;;;;;;;26.12;37.44;102139.41;4985475;28;20493;-75
2023/06/01 11:10:55;;;;;;;105.88;100.20;;;;;;;26.19;37.18;102130.69;5008862;28;20036;-74